ENGM/OSL METAR and TAF weather

Enter ICAO airport designator
Station Type Date Time Source
ENGM METAR 2020/02/19 11:20 UTC NOAA

ENGM 191120Z VRB02KT CAVOK 04/M05 Q0999 NOSIG


Station Type Date Time Source
ENGM Decoded METAR 2020/02/19 11:20 UTC NOAA

Oslo / Gardermoen, Norway (ENGM) 60-12N 011-05E 204M
Feb 19, 2020 - 06:20 AM EST / 2020.02.19 1120 UTC
Wind: Variable at 2 MPH (2 KT):0
Visibility: greater than 7 mile(s):0
Temperature: 39 F (4 C)
Dew Point: 23 F (-5 C)
Relative Humidity: 51%
Pressure (altimeter): 29.50 in. Hg (0999 hPa)
ob: ENGM 191120Z VRB02KT CAVOK 04/M05 Q0999 NOSIG
cycle: 11

Station Type Date Time Source
ENGM TAF 2020/02/19 06:57 UTC NOAA

TAF ENGM 190500Z 1906/2006 VRB05KT CAVOK
BECMG 2003/2005 18010KT BKN004 PROB40 2003/2006 0800 FZFG

Example: see airport list